Time;durP1;ratioP1;P1;durP2;ratioP2;P2;SDS_P1;SDS_P2;PMS_P1;PMS_P2;Temp;Humidity;BMP_temperature;BMP_pressure;BME280_temperature;BME280_humidity;BME280_pressure;Samples;Min_cycle;Max_cycle;Signal;HPM_P1;HPM_P2
2023/10/18 00:00:32;;;;;;;10.07;4.43;;;;;;;9.26;100.00;63913.59;5090941;28;20220;-55
2023/10/18 00:02:57;;;;;;;4.30;3.87;;;;;;;9.33;100.00;63918.72;5091298;28;20223;-56
2023/10/18 00:05:25;;;;;;;6.17;4.53;;;;;;;9.38;100.00;63923.66;5090930;28;20199;-56
2023/10/18 00:07:57;;;;;;;5.67;4.73;;;;;;;9.52;100.00;63940.94;5091035;28;20242;-57
2023/10/18 00:10:30;;;;;;;5.77;4.80;;;;;;;9.65;100.00;63952.63;5091151;28;20277;-57
2023/10/18 00:12:56;;;;;;;5.03;4.53;;;;;;;9.54;100.00;63943.66;5090835;28;20215;-56
2023/10/18 00:15:22;;;;;;;7.43;5.03;;;;;;;9.48;100.00;63939.63;5090951;28;20659;-57
2023/10/18 00:17:48;;;;;;;5.97;4.73;;;;;;;9.48;100.00;63937.09;5091072;28;20303;-57
2023/10/18 00:20:15;;;;;;;6.90;4.87;;;;;;;9.45;100.00;63933.84;5090879;28;20283;-56
2023/10/18 00:22:42;;;;;;;6.37;5.07;;;;;;;9.55;100.00;63942.25;5091009;28;20216;-59
2023/10/18 00:25:10;;;;;;;5.30;4.77;;;;;;;9.62;100.00;63949.91;5089395;28;20172;-57
2023/10/18 00:27:41;;;;;;;6.00;5.17;;;;;;;9.69;100.00;63959.53;5090898;28;20215;-58
2023/10/18 00:30:07;;;;;;;7.10;5.43;;;;;;;9.72;100.00;63962.78;5090814;28;20735;-55
2023/10/18 00:32:36;;;;;;;5.27;4.77;;;;;;;9.80;100.00;63972.09;5090764;28;20222;-55
2023/10/18 00:35:12;;;;;;;5.57;5.03;;;;;;;9.96;100.00;63984.00;5090541;28;20696;-55
2023/10/18 00:37:41;;;;;;;10.73;6.13;;;;;;;9.97;100.00;63988.19;5090774;28;20219;-55
2023/10/18 00:40:09;;;;;;;6.57;5.60;;;;;;;10.01;100.00;63992.56;5090412;28;20320;-55
2023/10/18 00:42:36;;;;;;;6.10;5.10;;;;;;;10.11;100.00;64005.47;5090380;28;20243;-57
2023/10/18 00:45:02;;;;;;;8.50;6.20;;;;;;;10.22;100.00;64016.97;5090562;28;20196;-54
2023/10/18 00:47:30;;;;;;;7.87;6.40;;;;;;;10.08;100.00;64000.22;5090465;28;20221;-54
2023/10/18 00:49:57;;;;;;;8.93;7.00;;;;;;;9.92;100.00;63982.16;5072616;28;20176;-54
2023/10/18 00:52:24;;;;;;;11.63;7.73;;;;;;;9.81;100.00;63975.72;5072263;28;20219;-54
2023/10/18 00:54:50;;;;;;;11.17;8.47;;;;;;;9.71;100.00;63959.19;5090636;28;20214;-54
2023/10/18 00:57:20;;;;;;;8.70;7.40;;;;;;;9.62;100.00;63952.41;5090212;28;20215;-54
2023/10/18 00:59:47;;;;;;;11.00;8.10;;;;;;;9.70;100.00;63958.09;5090248;28;20218;-57
2023/10/18 01:02:18;;;;;;;10.03;8.43;;;;;;;9.63;100.00;63948.47;5090060;28;20713;-55
2023/10/18 01:04:43;;;;;;;9.20;7.40;;;;;;;9.65;100.00;63953.19;5090297;28;20231;-54
2023/10/18 01:07:15;;;;;;;13.33;7.60;;;;;;;9.58;100.00;63944.97;5090438;28;20705;-55
2023/10/18 01:09:48;;;;;;;10.97;7.87;;;;;;;9.50;100.00;63939.28;5090168;28;20681;-55
2023/10/18 01:12:15;;;;;;;9.90;8.07;;;;;;;9.57;100.00;63946.94;5090307;28;20701;-56
2023/10/18 01:14:42;;;;;;;10.17;8.77;;;;;;;9.47;100.00;63933.50;5090159;28;20169;-56
2023/10/18 01:17:08;;;;;;;12.40;8.70;;;;;;;9.65;100.00;63955.69;5090356;28;20212;-55
2023/10/18 01:19:35;;;;;;;10.90;8.03;;;;;;;9.75;100.00;63964.13;5090248;28;20196;-54
2023/10/18 01:22:02;;;;;;;10.33;7.70;;;;;;;9.61;100.00;63948.81;5071946;28;20240;-54
2023/10/18 01:24:35;;;;;;;10.07;7.37;;;;;;;9.55;100.00;63944.78;5071856;28;20710;-54
2023/10/18 01:27:05;;;;;;;11.43;8.27;;;;;;;9.58;100.00;63944.97;5090075;28;20282;-55
2023/10/18 01:29:31;;;;;;;12.00;8.13;;;;;;;9.60;100.00;63949.66;5072501;28;20199;-54
2023/10/18 01:31:57;;;;;;;12.87;8.63;;;;;;;9.61;100.00;63951.31;5089838;28;20220;-55
2023/10/18 01:34:24;;;;;;;14.53;8.80;;;;;;;9.59;100.00;63951.66;5071615;28;20581;-54
2023/10/18 01:36:56;;;;;;;12.70;8.57;;;;;;;9.69;100.00;63960.06;5091344;28;20218;-55
2023/10/18 01:39:21;;;;;;;14.70;9.23;;;;;;;9.70;100.00;63961.16;5093357;28;20164;-56
2023/10/18 01:41:53;;;;;;;14.73;8.47;;;;;;;9.66;100.00;63956.78;5093239;28;20623;-55
2023/10/18 01:44:27;;;;;;;11.83;8.60;;;;;;;9.65;100.00;63953.19;5093129;28;20286;-55
2023/10/18 01:46:55;;;;;;;14.00;8.90;;;;;;;9.73;100.00;63961.94;5092987;28;20693;-54
2023/10/18 01:49:25;;;;;;;17.00;8.90;;;;;;;9.70;100.00;63961.16;5093176;28;20199;-55
2023/10/18 01:51:53;;;;;;;12.03;7.97;;;;;;;9.63;100.00;63952.97;5074978;28;20774;-56
2023/10/18 01:54:20;;;;;;;14.47;8.37;;;;;;;9.63;100.00;63952.97;5074922;28;20196;-55
2023/10/18 01:56:49;;;;;;;13.10;8.57;;;;;;;9.48;100.00;63934.03;5093324;28;20295;-55
2023/10/18 01:59:17;;;;;;;11.67;7.97;;;;;;;9.48;100.00;63937.09;5092975;28;20291;-55
2023/10/18 02:01:45;;;;;;;14.17;8.80;;;;;;;9.44;100.00;63932.72;5075275;28;20216;-55
2023/10/18 02:04:23;;;;;;;12.40;8.77;;;;;;;9.36;100.00;63923.44;5092902;28;20218;-58
2023/10/18 02:06:50;;;;;;;12.03;8.37;;;;;;;9.46;100.00;63934.38;5092678;28;20247;-58
2023/10/18 02:09:16;;;;;;;13.30;9.00;;;;;;;9.54;100.00;63943.66;5092863;28;20207;-58
2023/10/18 02:11:43;;;;;;;13.83;8.93;;;;;;;9.63;100.00;63955.47;5057871;28;20222;-57
2023/10/18 02:14:09;;;;;;;10.37;8.10;;;;;;;9.58;100.00;63947.50;5092620;28;20283;-57
2023/10/18 02:16:35;;;;;;;11.20;8.70;;;;;;;9.64;100.00;63954.59;5092845;28;20302;-55
2023/10/18 02:19:00;;;;;;;12.23;8.87;;;;;;;9.58;100.00;63948.03;5092640;28;20199;-54
2023/10/18 02:21:26;;;;;;;13.67;9.53;;;;;;;9.55;100.00;63944.78;5074548;28;20211;-57
2023/10/18 02:23:52;;;;;;;10.93;7.60;;;;;;;9.59;100.00;63948.59;5092623;28;20195;-55
2023/10/18 02:26:30;;;;;;;13.10;8.70;;;;;;;9.68;100.00;63958.97;5092355;28;20681;-55
2023/10/18 02:28:56;;;;;;;14.67;9.80;;;;;;;9.58;100.00;63948.03;5074359;28;20188;-55
2023/10/18 02:31:22;;;;;;;11.70;8.17;;;;;;;9.63;100.00;63952.97;5092391;28;20220;-55
2023/10/18 02:33:48;;;;;;;11.17;8.10;;;;;;;9.70;100.00;63960.59;5092240;28;20739;-54
2023/10/18 02:36:20;;;;;;;12.10;8.53;;;;;;;9.54;100.00;63943.09;5074452;28;20261;-54
2023/10/18 02:38:49;;;;;;;11.17;8.60;;;;;;;9.77;100.00;63971.34;5092362;28;20207;-55
2023/10/18 02:41:15;;;;;;;12.00;8.70;;;;;;;9.65;100.00;63953.19;5092216;28;20204;-54
2023/10/18 02:43:58;;;;;;;12.97;8.33;;;;;;;9.79;100.00;63971.00;5092061;28;20233;-54
2023/10/18 02:46:24;;;;;;;12.10;8.13;;;;;;;9.62;100.00;63949.34;5092088;28;20212;-54
2023/10/18 02:48:57;;;;;;;11.43;8.40;;;;;;;9.61;100.00;63951.31;5091049;28;20273;-55
2023/10/18 02:51:28;;;;;;;12.70;9.00;;;;;;;9.51;100.00;63937.31;5091972;28;20219;-54
2023/10/18 02:54:07;;;;;;;12.30;8.27;;;;;;;9.55;100.00;63944.22;5073916;28;20261;-54
2023/10/18 02:56:37;;;;;;;11.47;8.20;;;;;;;9.58;100.00;63948.03;5092274;28;20234;-54
2023/10/18 02:59:09;;;;;;;13.77;8.10;;;;;;;9.63;100.00;63952.97;5092186;28;20219;-55
2023/10/18 03:01:39;;;;;;;12.73;8.77;;;;;;;9.56;100.00;63942.78;5073901;28;20216;-57
2023/10/18 03:04:08;;;;;;;11.87;9.30;;;;;;;9.71;100.00;63964.22;5092063;28;20323;-59
2023/10/18 03:06:34;;;;;;;11.83;7.93;;;;;;;9.89;100.00;63981.41;5092045;28;20219;-58
2023/10/18 03:09:00;;;;;;;10.50;7.97;;;;;;;9.92;100.00;63985.22;5091873;28;20270;-59
2023/10/18 03:11:27;;;;;;;12.17;8.43;;;;;;;9.86;100.00;63978.66;5091886;28;20212;-58
2023/10/18 03:13:57;;;;;;;13.97;8.97;;;;;;;9.74;100.00;63965.53;5091693;28;20195;-57
2023/10/18 03:19:09;;;;;;;10.93;6.80;;;;;;;10.06;100.00;63999.97;5091231;28;20214;-56
2023/10/18 03:21:35;;;;;;;9.97;6.40;;;;;;;10.08;100.00;63999.66;5073718;28;20219;-57
2023/10/18 03:24:01;;;;;;;9.23;7.13;;;;;;;10.09;100.00;64001.31;5091357;28;20208;-56
2023/10/18 03:26:37;;;;;;;9.97;7.17;;;;;;;10.02;100.00;63995.59;5072063;28;20293;-55
2023/10/18 03:29:15;;;;;;;8.23;6.43;;;;;;;9.80;100.00;63969.56;5091681;28;20283;-54
2023/10/18 03:31:43;;;;;;;6.60;5.93;;;;;;;9.74;100.00;63965.53;5092218;28;20204;-55
2023/10/18 03:34:15;;;;;;;8.80;6.30;;;;;;;9.89;100.00;63981.41;5091581;28;20207;-58
2023/10/18 03:36:55;;;;;;;6.67;5.87;;;;;;;9.97;100.00;63990.69;5091162;28;20212;-58
2023/10/18 03:39:25;;;;;;;7.17;5.50;;;;;;;9.85;100.00;63977.56;5091205;28;20733;-57
2023/10/18 03:41:51;;;;;;;5.90;5.13;;;;;;;9.88;100.00;63983.38;5091415;28;20222;-56
2023/10/18 03:44:46;;;;;;;7.37;5.40;;;;;;;9.84;100.00;63973.94;5073211;28;20200;-57
2023/10/18 03:47:04;;;;;;;6.93;5.53;;;;;;;9.85;100.00;63975.06;5090792;28;20674;-54
2023/10/18 03:49:33;;;;;;;6.03;4.93;;;;;;;9.86;100.00;63978.66;5091261;28;20200;-57
2023/10/18 03:54:57;;;;;;;7.90;5.93;;;;;;;9.84;100.00;63976.47;5091238;28;20212;-56
2023/10/18 03:57:29;;;;;;;7.90;5.40;;;;;;;9.79;100.00;63971.00;5091159;28;20211;-55
2023/10/18 03:59:58;;;;;;;6.03;4.97;;;;;;;9.82;100.00;63974.28;5091025;28;20204;-56
2023/10/18 04:04:57;;;;;;;7.23;5.83;;;;;;;9.88;100.00;63980.84;5091133;28;20206;-55
2023/10/18 04:07:24;;;;;;;7.67;5.73;;;;;;;9.83;100.00;63974.84;5091357;28;20212;-55
2023/10/18 04:12:27;;;;;;;19.17;12.47;;;;;;;9.72;100.00;63963.34;5090922;28;20569;-56
2023/10/18 04:14:58;;;;;;;33.23;21.67;;;;;;;9.88;100.00;63980.84;5091159;28;20208;-55
2023/10/18 04:17:37;;;;;;;37.57;22.40;;;;;;;10.02;100.00;63996.16;5072590;28;20306;-55
2023/10/18 04:20:22;;;;;;;22.17;14.37;;;;;;;10.02;100.00;63995.59;5090899;28;20199;-55
2023/10/18 04:22:51;;;;;;;15.80;8.70;;;;;;;9.95;100.00;63988.50;5090674;28;20218;-56
2023/10/18 04:25:25;;;;;;;11.63;6.87;;;;;;;9.88;100.00;63980.84;5090825;28;20215;-56
2023/10/18 04:27:57;;;;;;;11.70;8.23;;;;;;;9.91;100.00;63984.13;5072691;28;20674;-55
2023/10/18 04:30:23;;;;;;;17.73;11.37;;;;;;;10.13;100.00;64008.22;5072664;28;20189;-58
2023/10/18 04:32:54;;;;;;;14.93;10.17;;;;;;;10.19;100.00;64016.19;5090657;28;20208;-58
2023/10/18 04:35:26;;;;;;;14.27;9.83;;;;;;;9.97;100.00;63993.22;5090693;28;20203;-58
2023/10/18 04:37:57;;;;;;;13.17;9.50;;;;;;;10.04;100.00;64000.31;5090833;28;20766;-59
2023/10/18 04:40:23;;;;;;;13.20;9.60;;;;;;;10.12;100.00;64004.59;5078106;22;20225;-57
2023/10/18 04:42:51;;;;;;;12.57;9.50;;;;;;;10.16;100.00;64007.91;5070235;28;20274;-58
2023/10/18 04:45:18;;;;;;;13.33;7.50;;;;;;;10.11;100.00;64006.03;5069086;28;20889;-55
2023/10/18 04:47:47;;;;;;;12.87;7.17;;;;;;;10.04;100.00;63995.28;5070622;28;20208;-56
2023/10/18 04:50:33;;;;;;;7.00;5.67;;;;;;;9.77;100.00;63968.28;5069865;28;20234;-59
2023/10/18 04:52:59;;;;;;;9.50;6.50;;;;;;;9.92;100.00;63985.22;5070529;28;20200;-59
2023/10/18 04:55:26;;;;;;;9.27;6.27;;;;;;;9.97;100.00;63988.19;5070822;28;20209;-62
2023/10/18 04:57:53;;;;;;;9.13;6.40;;;;;;;10.05;100.00;63996.94;5069102;28;20228;-57
2023/10/18 05:00:34;;;;;;;8.87;6.27;;;;;;;10.27;100.00;64022.44;5070328;28;20204;-57
2023/10/18 05:03:07;;;;;;;9.43;5.87;;;;;;;10.18;100.00;64010.09;5069042;28;20215;-57
2023/10/18 05:05:39;;;;;;;11.53;7.77;;;;;;;11.13;100.00;64116.59;5070131;28;20193;-57
2023/10/18 05:08:06;;;;;;;11.10;7.60;;;;;;;10.64;100.00;64060.44;5070414;28;20623;-56
2023/10/18 05:10:33;;;;;;;8.27;5.60;;;;;;;10.54;100.00;64052.00;5068986;28;20208;-57
2023/10/18 05:13:02;;;;;;;8.73;6.53;;;;;;;10.30;100.00;64025.72;5073055;28;20235;-57
2023/10/18 05:15:29;;;;;;;7.80;5.67;;;;;;;10.16;100.00;64010.41;5073546;28;20288;-57
2023/10/18 05:18:15;;;;;;;5.67;4.67;;;;;;;10.10;100.00;64004.38;5073400;28;20317;-58
2023/10/18 05:23:10;;;;;;;7.97;4.53;;;;;;;10.36;100.00;64032.28;5073650;28;20228;-56
2023/10/18 05:25:45;;;;;;;5.97;4.30;;;;;;;10.35;100.00;64034.25;5072056;28;20239;-56
2023/10/18 05:28:15;;;;;;;5.20;3.90;;;;;;;10.16;100.00;64010.41;5073295;28;20200;-56
2023/10/18 05:44:00;;;;;;;7.37;4.73;;;;;;;10.40;100.00;64034.16;5073560;28;20192;-55
2023/10/18 05:46:33;;;;;;;7.40;4.60;;;;;;;10.54;100.00;64052.00;5073050;28;20209;-56
2023/10/18 05:49:00;;;;;;;6.50;4.77;;;;;;;10.56;100.00;64054.19;5073032;28;20197;-57
2023/10/18 05:51:32;;;;;;;7.03;4.60;;;;;;;10.56;100.00;64054.19;5073166;28;20208;-56
2023/10/18 05:54:03;;;;;;;5.60;4.97;;;;;;;10.40;100.00;64034.72;5071620;28;20200;-56
2023/10/18 05:56:32;;;;;;;11.50;5.90;;;;;;;10.38;100.00;64034.47;5073177;28;20208;-56
2023/10/18 06:01:44;;;;;;;8.13;5.97;;;;;;;10.28;100.00;64026.59;5073334;28;20223;-55
2023/10/18 06:04:12;;;;;;;7.43;5.77;;;;;;;10.31;100.00;64027.38;5072853;28;20195;-58
2023/10/18 06:06:38;;;;;;;8.87;6.07;;;;;;;10.28;100.00;64023.53;5073066;28;20225;-55
2023/10/18 06:09:11;;;;;;;7.37;5.20;;;;;;;10.41;100.00;64035.25;5071552;28;20290;-55
2023/10/18 06:11:38;;;;;;;6.83;5.10;;;;;;;10.45;100.00;64037.09;5071548;28;20225;-55
2023/10/18 06:14:06;;;;;;;11.47;5.67;;;;;;;10.37;100.00;64033.38;5071403;28;20205;-54
2023/10/18 06:16:34;;;;;;;9.03;5.57;;;;;;;10.28;100.00;64023.53;5072690;28;20223;-57
2023/10/18 06:19:07;;;;;;;7.63;5.87;;;;;;;10.20;100.00;64014.78;5073080;28;20214;-55
2023/10/18 06:21:37;;;;;;;7.87;4.80;;;;;;;10.09;100.00;64003.28;5072567;28;20228;-55
2023/10/18 06:24:10;;;;;;;6.63;4.27;;;;;;;10.35;100.00;64031.75;5072343;28;20292;-55
2023/10/18 06:26:39;;;;;;;9.33;6.73;;;;;;;10.26;100.00;64019.38;5078620;22;20229;-55
2023/10/18 06:29:08;;;;;;;9.90;5.40;;;;;;;10.34;100.00;64030.09;5072402;28;20211;-56
2023/10/18 06:31:46;;;;;;;5.80;5.03;;;;;;;10.24;100.00;64022.22;5072589;28;20262;-55
2023/10/18 06:34:18;;;;;;;6.03;5.23;;;;;;;10.33;100.00;64027.03;5071300;28;20287;-55
2023/10/18 06:36:52;;;;;;;6.80;5.97;;;;;;;10.40;100.00;64034.16;5072300;28;20262;-60
2023/10/18 06:39:35;;;;;;;9.23;5.13;;;;;;;10.50;100.00;64045.09;5072458;28;20228;-59
2023/10/18 06:42:06;;;;;;;6.83;5.20;;;;;;;10.37;100.00;64033.94;5071092;28;20212;-57
2023/10/18 06:44:33;;;;;;;7.87;5.63;;;;;;;10.47;100.00;64044.31;5072477;28;20208;-56
2023/10/18 06:47:01;;;;;;;9.07;6.03;;;;;;;10.54;100.00;64052.56;5072248;28;20247;-58
2023/10/18 06:49:27;;;;;;;6.30;5.30;;;;;;;10.63;100.00;64061.84;5072372;28;20209;-57
2023/10/18 06:51:53;;;;;;;7.23;5.30;;;;;;;10.64;100.00;64062.94;5072195;28;20213;-54
2023/10/18 06:54:31;;;;;;;6.23;4.63;;;;;;;10.66;100.00;64065.69;5072338;28;20648;-55
2023/10/18 06:56:57;;;;;;;8.67;4.30;;;;;;;10.77;100.00;64077.72;5070583;28;20224;-55
2023/10/18 06:59:27;;;;;;;6.37;5.03;;;;;;;10.77;100.00;64077.72;5072018;28;20212;-55
2023/10/18 07:01:59;;;;;;;7.07;5.20;;;;;;;10.79;100.00;64076.84;5070975;28;20213;-54
2023/10/18 07:04:34;;;;;;;10.03;5.67;;;;;;;10.85;100.00;64085.91;5072156;28;20212;-56
2023/10/18 07:07:01;;;;;;;8.87;5.80;;;;;;;10.84;100.00;64082.88;5070574;28;20216;-55
2023/10/18 07:09:31;;;;;;;8.53;5.87;;;;;;;11.12;100.00;64115.50;5072034;28;20264;-55
2023/10/18 07:11:57;;;;;;;6.43;5.73;;;;;;;11.17;100.00;64120.97;5072048;28;20224;-56
2023/10/18 07:14:26;;;;;;;8.17;5.60;;;;;;;10.99;100.00;64101.81;5070811;28;20621;-55
2023/10/18 07:16:55;;;;;;;7.03;5.40;;;;;;;11.07;100.00;64106.97;5071548;28;20201;-56
2023/10/18 07:21:50;;;;;;;6.53;5.33;;;;;;;11.34;100.00;64137.06;5072072;28;20308;-55
2023/10/18 07:24:17;;;;;;;8.53;5.47;;;;;;;11.40;100.00;64143.09;5070506;28;20196;-55
2023/10/18 07:26:46;;;;;;;7.67;6.03;;;;;;;11.48;100.00;64154.94;5071328;28;20221;-56
2023/10/18 07:29:15;;;;;;;10.27;5.37;;;;;;;11.69;100.00;64175.44;5053939;28;20209;-55
2023/10/18 07:31:47;;;;;;;5.87;4.80;;;;;;;11.58;100.00;64163.38;5071656;28;20205;-57
2023/10/18 07:34:28;;;;;;;8.23;5.50;;;;;;;11.42;100.00;64148.34;5069607;28;20275;-55
2023/10/18 07:36:55;;;;;;;5.80;5.03;;;;;;;11.32;100.00;64137.41;5080832;22;20228;-57
2023/10/18 07:39:27;;;;;;;11.47;6.27;;;;;;;11.37;100.00;64137.28;5091608;28;20235;-54
2023/10/18 07:41:54;;;;;;;9.10;4.93;;;;;;;11.49;100.00;64153.50;5091789;28;20211;-58
2023/10/18 07:44:19;;;;;;;8.70;6.00;;;;;;;11.46;100.00;64152.75;5057230;28;20264;-58
2023/10/18 07:46:45;;;;;;;8.60;5.97;;;;;;;11.40;100.00;64141.13;5091553;28;20294;-57
2023/10/18 07:49:16;;;;;;;10.17;6.17;;;;;;;11.48;100.00;64154.94;5091606;28;20207;-55
2023/10/18 07:51:49;;;;;;;6.13;4.83;;;;;;;11.65;100.00;64173.00;5094852;22;20261;-54
2023/10/18 07:54:16;;;;;;;7.80;5.00;;;;;;;11.71;100.00;64177.63;5069725;28;20215;-54
2023/10/18 07:56:49;;;;;;;8.70;4.87;;;;;;;11.59;100.00;64167.00;5071104;28;20205;-57
2023/10/18 07:59:31;;;;;;;5.73;4.90;;;;;;;11.61;100.00;64166.66;5070983;28;20259;-59
2023/10/18 08:02:13;;;;;;;6.63;4.73;;;;;;;11.67;100.00;64173.25;5071095;28;20205;-57
2023/10/18 08:04:43;;;;;;;8.00;5.13;;;;;;;11.64;100.00;64172.47;5071285;28;20185;-58
2023/10/18 08:07:11;;;;;;;7.30;4.57;;;;;;;11.72;100.00;64175.66;5071144;28;20300;-56
2023/10/18 08:09:39;;;;;;;6.13;4.77;;;;;;;11.73;100.00;64181.81;5070935;28;20273;-56
2023/10/18 08:14:54;;;;;;;5.93;5.17;;;;;;;11.98;100.00;64208.66;5039774;28;20611;-56
2023/10/18 08:22:50;;;;;;;15.53;7.23;;;;;;;11.97;100.00;64207.56;5070800;28;20688;-57
2023/10/18 08:25:22;;;;;;;9.40;5.27;;;;;;;12.08;100.00;64219.63;5070758;28;20253;-58
2023/10/18 08:27:52;;;;;;;5.70;4.80;;;;;;;12.16;100.00;64225.88;5071078;28;20205;-58
2023/10/18 08:30:24;;;;;;;4.97;4.37;;;;;;;12.16;100.00;64223.34;5070691;28;20738;-57
2023/10/18 08:32:51;;;;;;;6.27;4.37;;;;;;;12.25;100.00;64238.81;5070772;28;20208;-58
2023/10/18 08:35:21;;;;;;;6.47;4.03;;;;;;;12.33;100.00;64244.50;5069337;28;20292;-57
2023/10/18 08:37:47;;;;;;;9.20;5.50;;;;;;;12.30;100.00;64243.75;5070537;28;20201;-57
2023/10/18 08:43:09;;;;;;;9.10;5.10;;;;;;;12.32;100.00;64243.94;5070483;28;20316;-56
2023/10/18 08:45:36;;;;;;;7.77;4.50;;;;;;;12.38;100.00;64247.47;5070272;28;20211;-60
2023/10/18 08:48:11;;;;;;;7.20;4.87;;;;;;;12.37;100.00;64249.44;5072455;28;20604;-55
2023/10/18 08:50:39;;;;;;;5.30;4.60;;;;;;;12.40;100.00;64255.25;5072667;28;20208;-57
2023/10/18 08:53:06;;;;;;;5.10;4.25;;;;;;;12.27;100.00;64241.00;5074205;28;20230;-55
2023/10/18 08:55:45;;;;;;;30.93;16.40;;;;;;;12.30;100.00;64241.75;5072595;28;20205;-56
2023/10/18 08:58:20;;;;;;;8.93;5.30;;;;;;;12.37;100.00;64251.97;5073781;28;20200;-56
2023/10/18 09:03:14;;;;;;;9.40;5.00;;;;;;;12.55;100.00;64266.66;5073872;28;20255;-56
2023/10/18 09:05:40;;;;;;;9.40;5.17;;;;;;;12.56;100.00;64272.25;5073769;28;20216;-55
2023/10/18 09:08:14;;;;;;;15.90;10.63;;;;;;;12.42;100.00;64254.38;5055908;28;20208;-54
2023/10/18 09:10:48;;;;;;;6.73;5.07;;;;;;;12.42;100.00;64254.38;5073701;28;20197;-56
2023/10/18 09:18:25;;;;;;;5.60;4.40;;;;;;;12.68;100.00;64285.41;5072441;28;20259;-55
2023/10/18 09:20:55;;;;;;;5.70;4.80;;;;;;;12.66;100.00;64278.16;5073807;28;20200;-54
2023/10/18 09:23:21;;;;;;;6.17;4.83;;;;;;;12.57;100.00;64270.81;5073277;28;20216;-55
2023/10/18 09:25:48;;;;;;;7.37;4.67;;;;;;;12.47;100.00;64257.88;5073114;28;20212;-55
2023/10/18 09:28:25;;;;;;;6.87;5.40;;;;;;;12.56;100.00;64272.25;5073073;28;20208;-56
2023/10/18 09:31:00;;;;;;;11.47;4.90;;;;;;;12.63;100.00;64277.94;5073270;28;20287;-56
2023/10/18 09:33:38;;;;;;;11.57;5.37;;;;;;;12.70;100.00;64287.59;5072958;28;20224;-53
2023/10/18 09:36:20;;;;;;;5.90;4.63;;;;;;;12.79;100.00;64297.47;5071641;28;20204;-54
2023/10/18 09:38:48;;;;;;;7.13;5.57;;;;;;;12.68;100.00;64282.34;5071926;28;20213;-53
2023/10/18 09:41:15;;;;;;;8.20;5.80;;;;;;;12.81;100.00;64297.13;5073082;28;20658;-55
2023/10/18 09:43:40;;;;;;;30.03;17.20;;;;;;;12.80;100.00;64298.56;5071823;28;20207;-54
2023/10/18 09:46:07;;;;;;;7.68;5.38;;;;;;;12.77;100.00;64290.22;5072999;28;20220;-55
2023/10/18 09:48:38;;;;;;;18.00;11.57;;;;;;;12.70;100.00;64282.56;5072935;28;20197;-55
2023/10/18 09:51:08;;;;;;;10.43;5.90;;;;;;;12.78;100.00;64293.84;5071537;28;20185;-54
2023/10/18 09:53:48;;;;;;;7.50;4.72;;;;;;;13.05;100.00;64320.44;5073041;28;20205;-55
2023/10/18 09:56:17;;;;;;;4.73;3.80;;;;;;;12.90;100.00;64307.03;5072950;28;20291;-56
2023/10/18 09:58:46;;;;;;;7.43;4.07;;;;;;;12.80;100.00;64298.56;5072368;28;20205;-55
2023/10/18 10:01:13;;;;;;;8.93;5.40;;;;;;;12.87;100.00;64303.16;5073034;28;20724;-57
2023/10/18 10:03:58;;;;;;;4.83;4.10;;;;;;;12.93;100.00;64310.28;5072972;28;20232;-57
2023/10/18 10:06:25;;;;;;;7.50;5.07;;;;;;;13.04;100.00;64319.31;5072726;28;20274;-56
2023/10/18 10:09:09;;;;;;;5.67;3.90;;;;;;;13.03;100.00;64323.81;5071313;28;20211;-55
2023/10/18 10:11:36;;;;;;;11.27;4.97;;;;;;;13.06;100.00;64324.59;5072557;28;20209;-55
2023/10/18 10:14:07;;;;;;;5.68;4.75;;;;;;;13.17;100.00;64336.66;5072602;28;20219;-56
2023/10/18 10:16:35;;;;;;;8.70;5.37;;;;;;;13.16;100.00;64332.47;5072686;28;20205;-55
2023/10/18 10:19:04;;;;;;;6.13;5.23;;;;;;;13.14;100.00;64335.91;5071323;28;20189;-56
2023/10/18 10:21:35;;;;;;;8.67;4.53;;;;;;;13.26;100.00;64346.00;5072356;28;20208;-54
2023/10/18 10:26:49;;;;;;;53.15;12.77;;;;;;;13.08;100.00;64324.25;5072737;28;20247;-56
2023/10/18 10:32:04;;;;;;;22.77;9.00;;;;;;;13.09;100.00;64325.34;5072485;28;20212;-54
2023/10/18 10:34:34;;;;;;;7.07;4.82;;;;;;;13.21;100.00;64343.03;5072360;28;20204;-56
2023/10/18 10:37:13;;;;;;;16.08;8.73;;;;;;;13.19;100.00;64336.31;5070988;28;20597;-56
2023/10/18 10:40:19;;;;;;;7.17;5.77;;;;;;;13.35;100.00;64356.41;5072148;28;20204;-56
2023/10/18 10:42:46;;;;;;;5.60;4.80;;;;;;;13.31;100.00;64352.00;5077873;22;20276;-55
2023/10/18 10:45:35;;;;;;;5.70;4.43;;;;;;;13.49;100.00;64371.78;5072037;28;20235;-55
2023/10/18 10:51:20;;;;;;;6.00;4.18;;;;;;;13.27;100.00;64350.16;5072261;28;20209;-57
2023/10/18 10:54:05;;;;;;;6.10;4.30;;;;;;;13.27;100.00;64350.16;5072235;28;20209;-56
2023/10/18 10:56:30;;;;;;;38.20;15.33;;;;;;;13.26;100.00;64346.00;5071986;28;20698;-55
2023/10/18 10:59:03;;;;;;;5.55;4.68;;;;;;;13.28;100.00;64346.22;5071708;28;20192;-56
2023/10/18 11:04:27;;;;;;;60.00;12.77;;;;;;;13.27;100.00;64349.63;5071944;28;20250;-56
2023/10/18 11:06:57;;;;;;;13.30;6.10;;;;;;;13.17;100.00;64334.13;5071686;28;20216;-56
2023/10/18 11:09:32;;;;;;;8.02;4.53;;;;;;;13.10;100.00;64325.91;5070685;28;20200;-56
2023/10/18 11:12:03;;;;;;;12.13;7.30;;;;;;;13.21;100.00;64341.03;5070265;28;20315;-56
2023/10/18 11:14:31;;;;;;;10.43;6.15;;;;;;;13.07;100.00;64325.16;5070225;28;20207;-58
2023/10/18 11:17:03;;;;;;;5.82;4.22;;;;;;;13.00;100.00;64317.44;5071187;28;20241;-55
2023/10/18 11:19:29;;;;;;;8.70;4.22;;;;;;;13.05;100.00;64323.47;5054342;28;20212;-55
2023/10/18 11:21:58;;;;;;;11.50;7.53;;;;;;;12.97;100.00;64312.16;5070186;28;20216;-56
2023/10/18 11:24:24;;;;;;;11.27;7.03;;;;;;;13.12;100.00;64331.19;5071339;28;20208;-56
2023/10/18 11:26:51;;;;;;;5.50;4.55;;;;;;;13.20;100.00;64342.50;5071325;28;20224;-54
2023/10/18 11:29:24;;;;;;;8.10;4.38;;;;;;;13.20;100.00;64339.97;5071429;28;20201;-54
2023/10/18 11:31:55;;;;;;;29.25;17.80;;;;;;;13.21;100.00;64343.56;5071314;28;20232;-58
2023/10/18 11:34:22;;;;;;;28.17;14.68;;;;;;;13.19;100.00;64336.31;5071171;28;20291;-54
2023/10/18 11:36:52;;;;;;;27.90;12.30;;;;;;;13.21;100.00;64343.03;5071093;28;20232;-59
2023/10/18 11:39:18;;;;;;;10.55;6.15;;;;;;;13.13;100.00;64329.72;5070999;28;20204;-57
2023/10/18 11:41:48;;;;;;;6.55;4.97;;;;;;;13.21;100.00;64340.50;5070828;28;20209;-59
2023/10/18 11:47:00;;;;;;;7.20;4.90;;;;;;;13.25;100.00;64342.91;5076719;22;20236;-55
2023/10/18 11:49:42;;;;;;;6.10;4.30;;;;;;;13.33;100.00;64354.22;5071113;28;20398;-55
2023/10/18 11:52:22;;;;;;;6.20;4.32;;;;;;;13.17;100.00;64336.13;5071084;28;20767;-54
2023/10/18 11:54:52;;;;;;;7.50;3.90;;;;;;;13.10;100.00;64328.44;5071210;28;20284;-55
2023/10/18 11:57:26;;;;;;;6.57;4.88;;;;;;;13.07;100.00;64325.69;5071001;28;20808;-58
2023/10/18 11:59:56;;;;;;;6.20;4.50;;;;;;;12.78;100.00;64290.78;5071085;28;20262;-61
2023/10/18 12:02:29;;;;;;;25.10;13.00;;;;;;;12.92;100.00;64309.22;5070976;28;20212;-56
2023/10/18 12:04:55;;;;;;;37.50;20.85;;;;;;;12.99;100.00;64316.34;5071115;28;20201;-55
2023/10/18 12:07:32;;;;;;;12.27;7.72;;;;;;;12.89;100.00;64308.44;5070415;28;20270;-55
2023/10/18 12:10:01;;;;;;;11.93;6.83;;;;;;;12.98;100.00;64315.78;5070894;28;20209;-55
2023/10/18 12:12:27;;;;;;;5.80;4.93;;;;;;;13.06;100.00;64324.03;5070765;28;20220;-56
2023/10/18 12:14:52;;;;;;;8.27;4.53;;;;;;;13.12;100.00;64331.19;5069349;28;20216;-55
2023/10/18 12:17:18;;;;;;;12.40;5.63;;;;;;;13.11;100.00;64329.53;5070542;28;20690;-54
2023/10/18 12:19:43;;;;;;;8.20;5.30;;;;;;;13.10;100.00;64328.97;5052578;28;20208;-54
2023/10/18 12:22:10;;;;;;;37.50;15.88;;;;;;;13.26;100.00;64346.53;5070204;28;20220;-55
2023/10/18 12:24:38;;;;;;;22.57;11.63;;;;;;;13.26;100.00;64346.00;5070572;28;20220;-55
2023/10/18 12:27:34;;;;;;;5.97;4.93;;;;;;;13.17;100.00;64336.66;5069109;28;20216;-56
2023/10/18 12:30:09;;;;;;;5.03;4.32;;;;;;;13.33;100.00;64354.22;5070635;28;20193;-56
2023/10/18 12:32:45;;;;;;;7.07;5.20;;;;;;;13.21;100.00;64341.03;5070358;28;20212;-55
2023/10/18 12:35:15;;;;;;;15.43;7.57;;;;;;;13.11;100.00;64330.06;5070439;28;20216;-55
2023/10/18 12:37:41;;;;;;;17.25;9.55;;;;;;;13.05;100.00;64325.47;5070274;28;20287;-59
2023/10/18 12:42:55;;;;;;;6.65;5.60;;;;;;;13.03;100.00;64321.28;5070474;28;20567;-55
2023/10/18 12:45:21;;;;;;;41.75;13.60;;;;;;;13.15;100.00;64333.94;5070642;28;20205;-57